Time;durP1;ratioP1;P1;durP2;ratioP2;P2;SDS_P1;SDS_P2;PMS_P1;PMS_P2;Temp;Humidity;BMP_temperature;BMP_pressure;BME280_temperature;BME280_humidity;BME280_pressure;Samples;Min_cycle;Max_cycle;Signal;HPM_P1;HPM_P2
2024/02/04 00:01:19;;;;;;;3.10;2.60;;;9.30;99.90;;;;;;4986682;28;20452;-71
2024/02/04 00:04:05;;;;;;;3.33;2.60;;;9.30;99.90;;;;;;4994153;28;20420;-72
2024/02/04 00:06:51;;;;;;;4.30;2.17;;;9.30;99.90;;;;;;4996578;28;20451;-72
2024/02/04 00:09:36;;;;;;;2.90;2.20;;;9.40;99.90;;;;;;4994929;28;20480;-72
2024/02/04 00:12:22;;;;;;;2.97;2.10;;;9.40;99.90;;;;;;4989753;28;20650;-72
2024/02/04 00:15:09;;;;;;;2.40;2.00;;;9.40;99.90;;;;;;5004544;28;21036;-72
2024/02/04 00:17:56;;;;;;;2.90;2.17;;;9.40;99.90;;;;;;5002657;28;20522;-72
2024/02/04 00:20:41;;;;;;;2.90;2.17;;;9.40;99.90;;;;;;4994148;28;20527;-71
2024/02/04 00:23:27;;;;;;;2.80;2.03;;;9.40;99.90;;;;;;4994141;28;20436;-72
2024/02/04 00:26:13;;;;;;;2.57;2.10;;;9.40;99.90;;;;;;5003374;28;20429;-72
2024/02/04 00:28:58;;;;;;;2.63;2.37;;;9.40;99.90;;;;;;5003502;28;20428;-72
2024/02/04 00:31:44;;;;;;;3.03;2.43;;;9.40;99.90;;;;;;5003817;28;20593;-72
2024/02/04 00:34:31;;;;;;;4.50;1.93;;;9.50;99.90;;;;;;4994014;28;20498;-72
2024/02/04 00:37:17;;;;;;;3.40;2.77;;;9.40;99.90;;;;;;4990384;28;20552;-72
2024/02/04 00:40:03;;;;;;;2.77;2.00;;;9.40;99.90;;;;;;4993493;28;20427;-72
2024/02/04 00:42:49;;;;;;;2.30;1.83;;;9.40;99.90;;;;;;5000592;28;20956;-72
2024/02/04 00:45:35;;;;;;;3.60;2.80;;;9.50;99.90;;;;;;5005158;28;20436;-71
2024/02/04 00:48:20;;;;;;;2.57;2.37;;;9.40;99.90;;;;;;4993963;28;20964;-71
2024/02/04 00:51:08;;;;;;;2.80;2.00;;;9.40;99.90;;;;;;4995061;28;20527;-71
2024/02/04 00:53:54;;;;;;;2.73;2.43;;;9.40;99.90;;;;;;5000748;28;20481;-71
2024/02/04 00:56:40;;;;;;;4.00;2.50;;;9.40;99.90;;;;;;4997541;28;20433;-72
2024/02/04 00:59:25;;;;;;;2.33;2.07;;;9.40;99.90;;;;;;4999734;28;20426;-71
2024/02/04 01:02:11;;;;;;;2.20;2.00;;;9.30;99.90;;;;;;4992345;28;20456;-72
2024/02/04 01:04:57;;;;;;;3.53;2.00;;;9.30;99.90;;;;;;4998046;28;20534;-72
2024/02/04 01:07:43;;;;;;;2.70;1.83;;;9.40;99.90;;;;;;5000133;28;20446;-72
2024/02/04 01:10:29;;;;;;;2.87;2.10;;;9.30;99.90;;;;;;4986861;28;20457;-71
2024/02/04 01:13:15;;;;;;;6.50;2.30;;;9.30;99.90;;;;;;4992769;28;20468;-72
2024/02/04 01:16:01;;;;;;;3.77;1.80;;;9.30;99.90;;;;;;5007130;28;20793;-71
2024/02/04 01:18:46;;;;;;;4.63;1.80;;;9.30;99.90;;;;;;5000690;28;20549;-71
2024/02/04 01:21:32;;;;;;;2.33;1.70;;;9.30;99.90;;;;;;4998261;28;20528;-71
2024/02/04 01:24:19;;;;;;;2.23;1.80;;;9.30;99.90;;;;;;5007738;28;20432;-72
2024/02/04 01:27:05;;;;;;;3.40;1.80;;;9.30;99.90;;;;;;4996889;28;20432;-72
2024/02/04 01:29:50;;;;;;;2.27;1.30;;;9.40;99.90;;;;;;5000317;28;20841;-71
2024/02/04 01:32:36;;;;;;;2.47;1.73;;;9.30;99.90;;;;;;4996533;28;20477;-72
2024/02/04 01:35:22;;;;;;;2.63;2.17;;;9.30;99.90;;;;;;5003833;28;20449;-72
2024/02/04 01:38:07;;;;;;;2.23;1.60;;;9.30;99.90;;;;;;5004616;28;20425;-71
2024/02/04 01:40:54;;;;;;;2.07;1.53;;;9.30;99.90;;;;;;5013381;23;20463;-71
2024/02/04 01:43:40;;;;;;;2.40;1.83;;;9.30;99.90;;;;;;4990845;28;20439;-72
2024/02/04 01:46:25;;;;;;;3.60;1.77;;;9.30;99.90;;;;;;4989743;28;20425;-72
2024/02/04 01:49:11;;;;;;;5.27;1.87;;;9.30;99.90;;;;;;4993738;28;20556;-74
2024/02/04 01:51:57;;;;;;;4.33;1.73;;;9.30;99.90;;;;;;4993471;28;20456;-73
2024/02/04 01:54:45;;;;;;;2.60;1.77;;;9.30;99.90;;;;;;4993517;28;20967;-71
2024/02/04 01:57:32;;;;;;;2.60;1.53;;;9.20;99.90;;;;;;4990284;28;20429;-71
2024/02/04 02:00:18;;;;;;;3.23;2.13;;;9.30;99.90;;;;;;4987568;28;21013;-74
2024/02/04 02:03:07;;;;;;;2.43;2.07;;;9.20;99.90;;;;;;4992012;28;20432;-74
2024/02/04 02:05:53;;;;;;;2.70;2.30;;;9.10;99.90;;;;;;4992970;28;20446;-74
2024/02/04 02:08:39;;;;;;;3.60;2.27;;;9.20;99.90;;;;;;4993467;28;20437;-74
2024/02/04 02:11:36;;;;;;;4.70;2.63;;;9.20;99.90;;;;;;4988823;28;20465;-73
2024/02/04 02:14:28;;;;;;;4.43;3.07;;;9.20;99.90;;;;;;4988611;28;20692;-73
2024/02/04 02:17:18;;;;;;;7.50;3.50;;;9.20;99.90;;;;;;4992589;28;20931;-74
2024/02/04 02:20:09;;;;;;;3.70;3.27;;;9.20;99.90;;;;;;4991461;28;20450;-71
2024/02/04 02:23:04;;;;;;;3.90;3.00;;;9.20;99.90;;;;;;4992579;28;20952;-73
2024/02/04 02:25:52;;;;;;;4.97;3.47;;;9.20;99.90;;;;;;4992260;28;20803;-74
2024/02/04 02:28:38;;;;;;;4.10;3.07;;;9.10;99.90;;;;;;4992939;28;20441;-73
2024/02/04 02:31:24;;;;;;;4.93;3.50;;;9.10;99.90;;;;;;4988494;28;20457;-74
2024/02/04 02:34:10;;;;;;;3.93;3.30;;;9.10;99.90;;;;;;4992425;28;20476;-73
2024/02/04 02:37:00;;;;;;;4.30;3.20;;;9.00;99.90;;;;;;4990109;28;20432;-74
2024/02/04 02:39:54;;;;;;;4.77;3.80;;;9.10;99.90;;;;;;4992827;28;20953;-74
2024/02/04 02:42:44;;;;;;;6.07;4.50;;;9.00;99.90;;;;;;4990324;28;21044;-73
2024/02/04 02:45:30;;;;;;;6.80;3.80;;;9.00;99.90;;;;;;4992883;28;20429;-73
2024/02/04 02:48:16;;;;;;;4.10;3.70;;;9.00;99.90;;;;;;4991907;28;20501;-73
2024/02/04 02:51:02;;;;;;;3.70;3.20;;;9.00;99.90;;;;;;4990523;28;20838;-73
2024/02/04 02:53:47;;;;;;;4.80;4.20;;;9.00;99.90;;;;;;4986753;28;20476;-73
2024/02/04 02:56:33;;;;;;;5.73;3.67;;;9.00;99.90;;;;;;4989317;28;20521;-73
2024/02/04 02:59:20;;;;;;;4.47;3.60;;;9.00;99.90;;;;;;4992321;28;20799;-73
2024/02/04 03:02:06;;;;;;;6.20;3.80;;;8.90;99.90;;;;;;4992067;28;20492;-73
2024/02/04 03:04:51;;;;;;;7.13;4.93;;;8.90;99.90;;;;;;4992264;28;20416;-73
2024/02/04 03:07:37;;;;;;;4.53;4.10;;;8.80;99.90;;;;;;4989782;28;20809;-73
2024/02/04 03:10:23;;;;;;;7.67;4.20;;;8.80;99.90;;;;;;4987486;28;20429;-73
2024/02/04 03:13:08;;;;;;;7.50;4.47;;;8.90;99.90;;;;;;4992024;28;20473;-73
2024/02/04 03:15:56;;;;;;;4.07;3.67;;;8.80;99.90;;;;;;4992119;28;20562;-73
2024/02/04 03:18:42;;;;;;;4.80;4.30;;;8.80;99.90;;;;;;4992360;28;20579;-73
2024/02/04 03:21:28;;;;;;;4.75;4.10;;;8.80;99.90;;;;;;4988181;28;20463;-73
2024/02/04 03:24:13;;;;;;;4.87;4.20;;;8.70;99.90;;;;;;4991717;28;20229;-73
2024/02/04 03:26:59;;;;;;;18.13;4.77;;;8.70;99.90;;;;;;4989153;28;20437;-73
2024/02/04 03:29:44;;;;;;;4.10;3.70;;;8.80;99.90;;;;;;4991630;28;20801;-73
2024/02/04 03:32:33;;;;;;;4.90;4.13;;;8.80;99.90;;;;;;4989679;28;20619;-73
2024/02/04 03:35:19;;;;;;;5.47;4.63;;;8.80;99.90;;;;;;4992069;28;20430;-73
2024/02/04 03:38:05;;;;;;;5.57;4.40;;;8.80;99.90;;;;;;4991938;28;20437;-73
2024/02/04 03:40:50;;;;;;;4.17;3.67;;;8.80;99.90;;;;;;4991397;28;20461;-73
2024/02/04 03:43:37;;;;;;;5.97;3.70;;;8.80;99.90;;;;;;4986613;28;20555;-73
2024/02/04 03:46:23;;;;;;;5.53;3.77;;;8.80;99.90;;;;;;4987362;28;20431;-73
2024/02/04 03:49:10;;;;;;;5.60;3.93;;;8.80;99.90;;;;;;4991429;28;20447;-73
2024/02/04 03:51:55;;;;;;;5.60;3.90;;;8.90;99.90;;;;;;4991195;28;20616;-73
2024/02/04 03:54:41;;;;;;;4.47;4.00;;;8.90;99.90;;;;;;4989337;28;20477;-73
2024/02/04 03:57:27;;;;;;;4.57;3.67;;;8.80;99.90;;;;;;4991960;28;20439;-73
2024/02/04 04:00:14;;;;;;;4.50;3.90;;;8.80;99.90;;;;;;4988131;28;20701;-72
2024/02/04 04:03:00;;;;;;;4.07;3.27;;;8.80;99.90;;;;;;4991154;28;20990;-73
2024/02/04 04:05:47;;;;;;;4.77;4.27;;;8.70;99.90;;;;;;4991843;28;20436;-73
2024/02/04 04:08:32;;;;;;;5.43;4.53;;;8.70;99.90;;;;;;4991152;28;21031;-73
2024/02/04 04:11:18;;;;;;;4.73;3.80;;;8.70;99.90;;;;;;4990818;28;20461;-73
2024/02/04 04:14:04;;;;;;;4.90;3.10;;;8.80;99.90;;;;;;4991209;28;20480;-73
2024/02/04 04:16:50;;;;;;;4.30;3.37;;;8.70;99.90;;;;;;4988421;28;20439;-73
2024/02/04 04:19:36;;;;;;;4.50;3.10;;;8.80;99.90;;;;;;4988674;28;20564;-73
2024/02/04 04:22:23;;;;;;;4.47;3.70;;;8.80;99.90;;;;;;4991038;28;20473;-73
2024/02/04 04:25:10;;;;;;;5.53;3.30;;;8.80;99.90;;;;;;4989071;28;20494;-73
2024/02/04 04:27:58;;;;;;;4.03;2.90;;;8.80;99.90;;;;;;4990978;28;20431;-73
2024/02/04 04:30:43;;;;;;;4.37;3.23;;;8.80;99.90;;;;;;4989170;28;20437;-73
2024/02/04 04:33:30;;;;;;;3.90;2.57;;;8.80;99.90;;;;;;4984890;28;21008;-73
2024/02/04 04:36:15;;;;;;;6.80;3.07;;;8.80;99.90;;;;;;4990314;28;20428;-73
2024/02/04 04:39:02;;;;;;;4.00;2.83;;;8.90;99.90;;;;;;4987578;28;20496;-72
2024/02/04 04:41:48;;;;;;;3.70;2.60;;;8.80;99.90;;;;;;4990504;28;20484;-73
2024/02/04 04:44:33;;;;;;;4.33;3.03;;;8.80;99.90;;;;;;4990867;28;20441;-73
2024/02/04 04:47:19;;;;;;;3.80;3.00;;;8.80;99.90;;;;;;4990976;28;20434;-73
2024/02/04 04:50:06;;;;;;;5.13;2.87;;;8.80;99.90;;;;;;4990663;28;20445;-73
2024/02/04 04:52:52;;;;;;;3.33;3.00;;;8.80;99.90;;;;;;4990530;28;20501;-73
2024/02/04 04:55:39;;;;;;;4.73;3.10;;;8.80;99.90;;;;;;4988361;28;20480;-73
2024/02/04 04:58:25;;;;;;;4.50;2.90;;;8.80;99.90;;;;;;4986521;28;20799;-73
2024/02/04 05:01:10;;;;;;;4.60;2.87;;;8.90;99.90;;;;;;4990564;28;20978;-73
2024/02/04 05:03:56;;;;;;;3.63;2.47;;;8.90;99.90;;;;;;4987129;28;20420;-73
2024/02/04 05:06:41;;;;;;;3.30;2.60;;;8.90;99.90;;;;;;4988973;28;20430;-72
2024/02/04 05:09:27;;;;;;;3.10;2.30;;;8.90;99.90;;;;;;4987315;28;20894;-73
2024/02/04 05:12:14;;;;;;;2.83;2.07;;;8.90;99.90;;;;;;4991705;28;20541;-72
2024/02/04 05:15:00;;;;;;;2.87;2.03;;;8.90;99.90;;;;;;4993900;28;20514;-73
2024/02/04 05:17:45;;;;;;;4.40;2.70;;;8.90;99.90;;;;;;4995993;28;20441;-73
2024/02/04 05:20:31;;;;;;;3.90;2.60;;;8.90;99.90;;;;;;4990765;28;20553;-73
2024/02/04 05:23:17;;;;;;;4.60;2.60;;;8.80;99.90;;;;;;4993265;28;20793;-73
2024/02/04 05:26:05;;;;;;;5.40;2.87;;;8.80;99.90;;;;;;4988032;28;20568;-73
2024/02/04 05:28:52;;;;;;;2.93;2.20;;;8.80;99.90;;;;;;4993916;28;20459;-73
2024/02/04 05:31:42;;;;;;;2.57;2.10;;;8.80;99.90;;;;;;4991298;28;20454;-73
2024/02/04 05:34:30;;;;;;;2.47;1.90;;;8.80;99.90;;;;;;4990198;28;21001;-73
2024/02/04 05:37:15;;;;;;;2.60;2.10;;;8.80;99.90;;;;;;4993975;28;20436;-73
2024/02/04 05:40:01;;;;;;;2.80;2.10;;;8.80;99.90;;;;;;4993892;28;20503;-73
2024/02/04 05:42:47;;;;;;;3.67;2.60;;;8.90;99.90;;;;;;4989830;28;20463;-73
2024/02/04 05:45:34;;;;;;;3.07;2.23;;;8.90;99.90;;;;;;4990698;28;20428;-73
2024/02/04 05:48:20;;;;;;;3.33;2.40;;;8.90;99.90;;;;;;4993913;28;20580;-73
2024/02/04 05:51:06;;;;;;;2.43;1.83;;;8.90;99.90;;;;;;4993437;28;20572;-73
2024/02/04 05:53:51;;;;;;;5.73;2.47;;;8.90;99.90;;;;;;4993188;28;20542;-73
2024/02/04 05:56:37;;;;;;;2.73;1.83;;;8.90;99.90;;;;;;4991044;28;20428;-73
2024/02/04 05:59:23;;;;;;;2.37;1.70;;;8.90;99.90;;;;;;4990851;28;20476;-73
2024/02/04 06:02:10;;;;;;;2.90;1.73;;;8.90;99.90;;;;;;4993310;28;20473;-73
2024/02/04 06:04:56;;;;;;;2.77;2.10;;;8.90;99.90;;;;;;4993387;28;20784;-73
2024/02/04 06:07:44;;;;;;;2.50;1.70;;;8.90;99.90;;;;;;4991641;28;20912;-73
2024/02/04 06:10:29;;;;;;;2.30;1.90;;;8.90;99.90;;;;;;4989610;28;20432;-73
2024/02/04 06:13:15;;;;;;;2.23;1.70;;;8.90;99.90;;;;;;4993022;28;20797;-73
2024/02/04 06:16:01;;;;;;;3.40;1.80;;;8.90;99.90;;;;;;4990747;28;20430;-73
2024/02/04 06:18:48;;;;;;;3.63;1.60;;;8.80;99.90;;;;;;4991902;28;20510;-74
2024/02/04 06:21:33;;;;;;;1.70;1.20;;;8.90;99.90;;;;;;4989454;28;20563;-73
2024/02/04 06:24:20;;;;;;;2.07;1.50;;;8.90;99.90;;;;;;4990992;28;20594;-73
2024/02/04 06:27:06;;;;;;;1.90;1.40;;;8.90;99.90;;;;;;4992765;28;20800;-73
2024/02/04 06:29:51;;;;;;;2.50;1.50;;;8.90;99.90;;;;;;4993168;28;20439;-73
2024/02/04 06:32:37;;;;;;;2.40;1.87;;;9.00;99.90;;;;;;4987388;28;20462;-73
2024/02/04 06:35:24;;;;;;;2.97;1.73;;;9.00;99.90;;;;;;4992470;28;20479;-73
2024/02/04 06:38:09;;;;;;;2.40;1.60;;;9.00;99.90;;;;;;4992803;28;20943;-73
2024/02/04 06:40:55;;;;;;;2.57;1.57;;;9.00;99.90;;;;;;4992597;28;20451;-73
2024/02/04 06:43:41;;;;;;;2.63;1.53;;;8.90;99.90;;;;;;4990705;28;20445;-73
2024/02/04 06:46:27;;;;;;;2.20;1.67;;;8.90;99.90;;;;;;4992813;28;20452;-73
2024/02/04 06:49:17;;;;;;;2.10;1.40;;;8.90;99.90;;;;;;4990040;28;20572;-73
2024/02/04 06:52:05;;;;;;;3.30;1.47;;;8.90;99.90;;;;;;4988426;28;20473;-73
2024/02/04 06:54:51;;;;;;;2.60;1.47;;;8.90;99.90;;;;;;4992201;28;20561;-73
2024/02/04 06:57:37;;;;;;;3.17;1.97;;;8.80;99.90;;;;;;4990030;28;20429;-73
2024/02/04 07:00:22;;;;;;;4.80;2.80;;;8.80;99.90;;;;;;4992455;28;20838;-73
2024/02/04 07:03:08;;;;;;;2.23;1.70;;;8.90;99.90;;;;;;4992111;28;20455;-73
2024/02/04 07:05:53;;;;;;;2.97;1.77;;;8.80;99.90;;;;;;4992307;28;20433;-74
2024/02/04 07:08:40;;;;;;;1.90;1.37;;;8.80;99.90;;;;;;4992220;28;20829;-73
2024/02/04 07:11:26;;;;;;;2.70;1.60;;;8.80;99.90;;;;;;4991714;28;20544;-73
2024/02/04 07:14:12;;;;;;;2.30;1.70;;;8.80;99.90;;;;;;4992006;28;20476;-73
2024/02/04 07:16:57;;;;;;;2.13;1.60;;;8.80;99.90;;;;;;4992079;28;20500;-73
2024/02/04 07:19:43;;;;;;;2.03;1.70;;;8.90;99.90;;;;;;4990222;28;20492;-73
2024/02/04 07:22:28;;;;;;;2.73;1.83;;;8.80;99.90;;;;;;4991661;28;20465;-73
2024/02/04 07:25:15;;;;;;;2.30;1.80;;;8.80;99.90;;;;;;4988977;28;20421;-73
2024/02/04 07:28:01;;;;;;;2.57;2.13;;;8.80;99.90;;;;;;4987643;28;20552;-72
2024/02/04 07:30:46;;;;;;;2.70;2.20;;;8.80;99.90;;;;;;4990678;28;20509;-73
2024/02/04 07:33:32;;;;;;;3.00;1.90;;;8.70;99.90;;;;;;4991286;28;21041;-73
2024/02/04 07:36:18;;;;;;;3.60;2.23;;;8.60;99.90;;;;;;4991815;28;20438;-73
2024/02/04 07:39:04;;;;;;;2.47;2.20;;;8.60;99.90;;;;;;4991755;28;20438;-72
2024/02/04 07:41:51;;;;;;;3.10;1.83;;;8.60;99.90;;;;;;4988413;28;20465;-72
2024/02/04 07:44:36;;;;;;;2.50;2.23;;;8.60;99.90;;;;;;4988893;28;20429;-72
2024/02/04 07:47:22;;;;;;;3.90;2.50;;;8.70;99.90;;;;;;4991853;28;20448;-72
2024/02/04 07:50:09;;;;;;;5.97;3.10;;;8.60;99.90;;;;;;4991654;28;20427;-72
2024/02/04 07:52:55;;;;;;;3.80;2.00;;;8.70;99.90;;;;;;4991441;28;20432;-72
2024/02/04 07:55:40;;;;;;;3.63;2.30;;;8.70;99.90;;;;;;4991416;28;20609;-72
2024/02/04 07:58:27;;;;;;;5.10;3.20;;;8.70;99.90;;;;;;4988431;28;20442;-72
2024/02/04 08:01:13;;;;;;;4.30;2.70;;;8.70;99.90;;;;;;4991124;28;20445;-72
2024/02/04 08:03:59;;;;;;;3.53;2.87;;;8.60;99.90;;;;;;4991383;28;20431;-72
2024/02/04 08:06:45;;;;;;;4.20;3.27;;;8.50;99.90;;;;;;4989992;28;20789;-72
2024/02/04 08:09:30;;;;;;;4.80;3.97;;;8.60;99.90;;;;;;4991340;28;20440;-72
2024/02/04 08:12:16;;;;;;;4.13;2.80;;;8.50;99.90;;;;;;4988318;28;20802;-72
2024/02/04 08:15:04;;;;;;;4.47;3.40;;;8.60;99.90;;;;;;4988427;28;20475;-72
2024/02/04 08:17:50;;;;;;;4.20;3.57;;;8.50;99.90;;;;;;4990674;28;20433;-72
2024/02/04 08:20:35;;;;;;;3.40;2.67;;;8.60;99.90;;;;;;4990707;28;20437;-72
2024/02/04 08:23:21;;;;;;;7.73;4.87;;;8.60;99.90;;;;;;4990748;28;20441;-72
2024/02/04 08:26:07;;;;;;;8.97;5.00;;;8.60;99.90;;;;;;4991259;28;20793;-72
2024/02/04 08:28:52;;;;;;;10.77;6.10;;;8.50;99.90;;;;;;4990623;28;20427;-72
2024/02/04 08:31:40;;;;;;;5.77;4.00;;;8.50;99.90;;;;;;4985765;28;20560;-72
2024/02/04 08:34:25;;;;;;;4.70;2.97;;;8.40;99.90;;;;;;4990905;28;20441;-72
2024/02/04 08:37:11;;;;;;;3.50;2.80;;;8.40;99.90;;;;;;4991087;28;20785;-72
2024/02/04 08:39:56;;;;;;;11.43;5.13;;;8.40;99.90;;;;;;4991222;28;20437;-72
2024/02/04 08:42:42;;;;;;;12.70;5.50;;;8.40;99.90;;;;;;4988866;28;20460;-72
2024/02/04 08:45:28;;;;;;;6.40;3.57;;;8.40;99.90;;;;;;4991075;28;20821;-72
2024/02/04 08:48:15;;;;;;;4.00;3.10;;;8.40;99.90;;;;;;4991256;28;20430;-72
2024/02/04 08:51:00;;;;;;;6.37;4.83;;;8.50;99.90;;;;;;4989733;28;20595;-72
2024/02/04 08:53:46;;;;;;;12.37;5.30;;;8.50;99.90;;;;;;4993050;28;20516;-72
2024/02/04 08:56:32;;;;;;;5.90;3.17;;;8.60;99.90;;;;;;4994738;28;20560;-72
2024/02/04 08:59:17;;;;;;;24.20;17.20;;;8.60;99.90;;;;;;4994707;28;20441;-72
2024/02/04 09:02:03;;;;;;;6.33;4.70;;;8.60;99.90;;;;;;4994030;28;20449;-72
2024/02/04 09:04:50;;;;;;;4.07;3.50;;;8.50;99.90;;;;;;4993586;28;20992;-72
2024/02/04 09:07:35;;;;;;;3.30;2.40;;;8.50;99.90;;;;;;4992079;28;20444;-72
2024/02/04 09:10:21;;;;;;;2.93;2.43;;;8.50;99.90;;;;;;4994271;28;20432;-72
2024/02/04 09:13:07;;;;;;;8.13;4.37;;;8.60;99.90;;;;;;4990251;28;20946;-72
2024/02/04 09:15:53;;;;;;;4.87;2.93;;;8.60;99.90;;;;;;4995726;28;20483;-72
2024/02/04 09:18:39;;;;;;;5.67;3.67;;;8.60;99.90;;;;;;4993870;28;20893;-72
2024/02/04 09:21:26;;;;;;;5.43;3.80;;;8.70;99.90;;;;;;4994208;28;20459;-72
2024/02/04 09:24:12;;;;;;;7.20;2.47;;;8.70;99.90;;;;;;4993649;28;21051;-72
2024/02/04 09:26:57;;;;;;;3.27;2.37;;;8.70;99.90;;;;;;4994152;28;20430;-72
2024/02/04 09:29:43;;;;;;;6.37;3.50;;;8.70;99.90;;;;;;4992557;28;20428;-72
2024/02/04 09:32:28;;;;;;;11.97;5.97;;;8.70;99.90;;;;;;4993602;28;20458;-72
2024/02/04 09:35:14;;;;;;;4.37;3.13;;;8.70;99.90;;;;;;4994103;28;20472;-72
2024/02/04 09:38:01;;;;;;;33.63;13.00;;;8.80;99.90;;;;;;4994130;28;20747;-72
2024/02/04 09:40:46;;;;;;;8.93;4.57;;;8.70;99.90;;;;;;4991381;28;20894;-72
2024/02/04 09:43:33;;;;;;;6.30;3.17;;;8.80;99.90;;;;;;4993769;28;20439;-72
2024/02/04 09:46:19;;;;;;;5.47;2.70;;;8.70;99.90;;;;;;4993520;28;20449;-73
2024/02/04 09:49:05;;;;;;;3.53;2.23;;;8.70;99.90;;;;;;4988843;28;20536;-72
2024/02/04 09:51:51;;;;;;;6.87;3.03;;;8.70;99.90;;;;;;4992802;28;20469;-72
2024/02/04 09:54:44;;;;;;;5.13;2.70;;;8.80;99.90;;;;;;4993073;28;20508;-72
2024/02/04 09:57:30;;;;;;;3.17;2.37;;;8.80;99.90;;;;;;4992513;28;20437;-72
2024/02/04 10:00:20;;;;;;;5.07;2.23;;;8.80;99.90;;;;;;4993530;28;20444;-71
2024/02/04 10:03:06;;;;;;;6.63;4.93;;;8.90;99.90;;;;;;4993777;28;20429;-72
2024/02/04 10:05:52;;;;;;;9.43;5.30;;;8.90;99.90;;;;;;4992797;28;20434;-72
2024/02/04 10:08:39;;;;;;;3.50;2.50;;;8.90;99.90;;;;;;4993540;28;20495;-72
2024/02/04 10:11:25;;;;;;;4.50;2.80;;;8.90;99.90;;;;;;4992851;28;20479;-72
2024/02/04 10:14:11;;;;;;;3.40;1.47;;;9.00;99.90;;;;;;4992155;28;20429;-72
2024/02/04 10:16:57;;;;;;;3.97;1.53;;;9.00;99.90;;;;;;4993338;28;20484;-72
2024/02/04 10:19:42;;;;;;;8.47;3.60;;;9.00;99.90;;;;;;4993218;28;20799;-72
2024/02/04 10:22:28;;;;;;;3.33;2.47;;;9.10;99.90;;;;;;4992901;28;20461;-72
2024/02/04 10:25:16;;;;;;;2.77;1.80;;;9.10;99.90;;;;;;4993531;28;20425;-72
2024/02/04 10:28:03;;;;;;;3.97;1.70;;;9.10;99.90;;;;;;4993574;28;20441;-72
2024/02/04 10:30:49;;;;;;;3.97;1.67;;;9.10;99.90;;;;;;4990229;28;20870;-72
2024/02/04 10:33:35;;;;;;;2.70;1.83;;;9.10;99.90;;;;;;4992499;28;20912;-72
2024/02/04 10:36:21;;;;;;;2.33;1.60;;;9.20;99.90;;;;;;4992973;28;20478;-72
2024/02/04 10:39:07;;;;;;;2.33;1.47;;;9.20;99.90;;;;;;4992597;28;20566;-72
2024/02/04 10:41:53;;;;;;;1.97;1.50;;;9.30;99.90;;;;;;4991655;28;20465;-72
2024/02/04 10:44:45;;;;;;;3.10;1.70;;;9.30;99.90;;;;;;4992459;28;20445;-72
2024/02/04 10:47:33;;;;;;;2.53;1.70;;;9.30;99.90;;;;;;4991406;28;20446;-72
2024/02/04 10:50:20;;;;;;;2.20;1.43;;;9.30;99.90;;;;;;4992653;28;20444;-72
2024/02/04 10:53:08;;;;;;;3.17;1.70;;;9.40;99.90;;;;;;4992432;28;20427;-72
2024/02/04 10:55:58;;;;;;;1.90;1.27;;;9.40;99.90;;;;;;4992342;28;20473;-72
2024/02/04 10:58:44;;;;;;;2.43;1.57;;;9.40;99.90;;;;;;4992225;28;20432;-72
2024/02/04 11:01:32;;;;;;;2.27;1.20;;;9.40;99.90;;;;;;4992389;28;21050;-72
2024/02/04 11:04:18;;;;;;;2.50;1.60;;;9.40;99.90;;;;;;4991487;28;20445;-72
2024/02/04 11:07:05;;;;;;;3.60;1.57;;;9.50;99.90;;;;;;4986679;28;20473;-72
2024/02/04 11:09:51;;;;;;;2.50;1.57;;;9.50;99.90;;;;;;4991137;28;20482;-72
2024/02/04 11:12:40;;;;;;;2.20;1.20;;;9.50;99.90;;;;;;4991918;28;20531;-72
2024/02/04 11:15:33;;;;;;;1.93;1.17;;;9.50;99.90;;;;;;4991750;28;20470;-72
2024/02/04 11:18:47;;;;;;;1.83;1.30;;;9.50;99.90;;;;;;4992140;28;20442;-72
2024/02/04 11:21:58;;;;;;;1.73;1.10;;;9.50;99.90;;;;;;4987562;28;20456;-72
2024/02/04 11:24:56;;;;;;;1.83;1.10;;;9.50;99.90;;;;;;4991864;28;21080;-73
2024/02/04 11:27:42;;;;;;;3.47;1.93;;;9.50;99.90;;;;;;4991786;28;20439;-72
2024/02/04 11:30:28;;;;;;;1.80;1.07;;;9.50;99.90;;;;;;4991702;28;20496;-72
2024/02/04 11:33:18;;;;;;;3.37;1.60;;;9.50;99.90;;;;;;4987100;28;20552;-72
2024/02/04 11:36:07;;;;;;;2.20;1.40;;;9.50;99.90;;;;;;4985346;28;20581;-73
2024/02/04 11:38:53;;;;;;;1.67;1.13;;;9.60;99.90;;;;;;4989982;28;20516;-72
2024/02/04 11:41:46;;;;;;;1.83;1.20;;;9.60;99.90;;;;;;4991193;28;20465;-72
2024/02/04 11:44:32;;;;;;;2.07;1.27;;;9.60;99.90;;;;;;4991184;28;20456;-72
2024/02/04 11:47:24;;;;;;;2.20;1.30;;;9.70;99.90;;;;;;4991658;28;20433;-72
2024/02/04 11:50:10;;;;;;;3.77;1.07;;;9.70;99.90;;;;;;4991776;28;20492;-72
2024/02/04 11:53:06;;;;;;;2.37;0.90;;;9.70;99.90;;;;;;4991303;28;20575;-72
2024/02/04 11:55:53;;;;;;;1.80;0.83;;;9.70;99.90;;;;;;4987953;28;20596;-72
2024/02/04 11:58:41;;;;;;;1.73;0.80;;;9.70;99.90;;;;;;4984851;28;20435;-73
2024/02/04 12:01:26;;;;;;;1.83;1.20;;;9.80;99.90;;;;;;4987236;28;20527;-73
2024/02/04 12:04:13;;;;;;;4.20;2.03;;;9.90;99.90;;;;;;4985896;28;20524;-73
2024/02/04 12:06:59;;;;;;;6.33;3.13;;;9.80;99.90;;;;;;4983232;28;20477;-73
2024/02/04 12:09:46;;;;;;;2.27;1.40;;;9.80;99.90;;;;;;4991337;28;20625;-73
2024/02/04 12:12:32;;;;;;;2.17;1.17;;;9.80;99.90;;;;;;4986066;28;20469;-72
2024/02/04 12:15:18;;;;;;;3.33;1.63;;;9.90;99.90;;;;;;4991190;28;20940;-72
2024/02/04 12:18:07;;;;;;;2.53;1.17;;;9.90;99.90;;;;;;4991163;28;20422;-71
2024/02/04 12:20:53;;;;;;;1.47;0.97;;;10.00;99.90;;;;;;4993525;28;20451;-71
2024/02/04 12:23:38;;;;;;;2.77;1.40;;;10.10;99.90;;;;;;4995096;28;20430;-70
2024/02/04 12:26:25;;;;;;;2.10;1.20;;;10.10;99.90;;;;;;4994728;28;20426;-70
2024/02/04 12:29:11;;;;;;;2.70;1.10;;;10.10;99.90;;;;;;4988773;28;20522;-70
2024/02/04 12:32:00;;;;;;;1.80;0.77;;;10.10;99.90;;;;;;4987059;28;20444;-70
2024/02/04 12:34:48;;;;;;;3.43;1.47;;;10.10;99.90;;;;;;4994977;28;20436;-71
2024/02/04 12:37:34;;;;;;;3.03;1.33;;;10.10;99.90;;;;;;4994766;28;20480;-70
2024/02/04 12:40:22;;;;;;;1.63;0.90;;;10.10;99.90;;;;;;4994985;28;20436;-70
2024/02/04 12:43:12;;;;;;;4.47;0.90;;;10.20;99.90;;;;;;4986528;28;20435;-70
2024/02/04 12:45:59;;;;;;;2.40;1.10;;;10.20;99.90;;;;;;4987136;28;20880;-70
2024/02/04 12:48:44;;;;;;;1.50;0.93;;;10.20;99.90;;;;;;4992906;28;20791;-71
2024/02/04 12:51:31;;;;;;;1.60;0.90;;;10.10;99.90;;;;;;4994974;28;20457;-70
2024/02/04 12:54:18;;;;;;;1.70;1.20;;;10.10;99.90;;;;;;4989499;28;20964;-71
2024/02/04 12:57:04;;;;;;;1.60;1.00;;;10.20;99.90;;;;;;4994775;28;20852;-70
2024/02/04 12:59:51;;;;;;;2.13;1.30;;;10.20;99.90;;;;;;4993846;28;20431;-70
2024/02/04 13:02:36;;;;;;;1.50;1.03;;;10.30;99.90;;;;;;4993999;28;20447;-70
2024/02/04 13:05:25;;;;;;;1.90;1.17;;;10.30;99.90;;;;;;4991805;28;20818;-71
2024/02/04 13:08:11;;;;;;;2.07;1.20;;;10.30;99.90;;;;;;4994967;28;20782;-70
2024/02/04 13:10:58;;;;;;;3.20;1.57;;;10.30;99.90;;;;;;4993924;28;20790;-70
2024/02/04 13:13:43;;;;;;;3.10;1.23;;;10.30;99.90;;;;;;4994196;28;20433;-70
2024/02/04 13:16:31;;;;;;;1.60;0.90;;;10.40;99.90;;;;;;4996081;28;20547;-70
2024/02/04 13:19:17;;;;;;;2.60;1.57;;;10.40;99.90;;;;;;4988893;28;20793;-70
2024/02/04 13:22:03;;;;;;;2.20;1.33;;;10.50;99.90;;;;;;4987399;28;20443;-71
2024/02/04 13:24:48;;;;;;;2.83;1.63;;;10.50;99.90;;;;;;4994373;28;20425;-71
2024/02/04 13:27:34;;;;;;;2.30;1.20;;;10.50;99.90;;;;;;4994331;28;20556;-70
2024/02/04 13:30:20;;;;;;;2.03;0.93;;;10.50;99.90;;;;;;4989306;28;20960;-70
2024/02/04 13:33:08;;;;;;;2.80;1.70;;;10.50;99.90;;;;;;4986526;28;20432;-71
2024/02/04 13:35:54;;;;;;;1.50;0.90;;;10.50;99.90;;;;;;4993935;28;20476;-71
2024/02/04 13:38:39;;;;;;;2.37;1.40;;;10.50;99.90;;;;;;4991205;28;20852;-70
2024/02/04 13:41:25;;;;;;;1.43;0.90;;;10.50;99.90;;;;;;4990539;28;20477;-71
2024/02/04 13:44:11;;;;;;;2.13;1.30;;;10.50;99.90;;;;;;4986802;28;20512;-70
2024/02/04 13:46:56;;;;;;;1.70;1.13;;;10.50;99.90;;;;;;4993297;28;20431;-70
2024/02/04 13:49:43;;;;;;;2.03;1.17;;;10.50;99.90;;;;;;4993605;28;20503;-72
2024/02/04 13:52:29;;;;;;;2.60;1.40;;;10.50;99.90;;;;;;4993342;28;20793;-70
2024/02/04 13:55:14;;;;;;;2.07;1.20;;;10.50;99.90;;;;;;4990140;28;20500;-70
2024/02/04 13:58:00;;;;;;;1.50;1.00;;;10.50;99.90;;;;;;4993402;28;20479;-71
2024/02/04 14:00:46;;;;;;;2.63;1.30;;;10.40;99.90;;;;;;4993290;28;20455;-70
2024/02/04 14:03:32;;;;;;;5.20;3.10;;;10.40;99.90;;;;;;4992225;28;20467;-71
2024/02/04 14:06:19;;;;;;;4.53;1.40;;;10.40;99.90;;;;;;4979896;28;20587;-71
2024/02/04 14:09:05;;;;;;;3.43;1.97;;;10.40;99.90;;;;;;4986386;28;20512;-72
2024/02/04 14:11:50;;;;;;;2.30;1.43;;;10.40;99.90;;;;;;4989946;28;20504;-72
2024/02/04 14:14:36;;;;;;;4.40;1.70;;;10.40;99.90;;;;;;4996725;28;20436;-72
2024/02/04 14:17:22;;;;;;;1.80;1.13;;;10.40;99.90;;;;;;4988875;28;20470;-72
2024/02/04 14:20:09;;;;;;;2.33;1.50;;;10.40;99.90;;;;;;4993609;28;20428;-72
2024/02/04 14:22:56;;;;;;;2.30;1.20;;;10.40;99.90;;;;;;4985780;28;20911;-72
2024/02/04 14:25:42;;;;;;;2.13;1.20;;;10.40;99.90;;;;;;4990362;28;20424;-72
2024/02/04 14:28:28;;;;;;;1.93;1.10;;;10.40;99.90;;;;;;4991681;28;20576;-72
2024/02/04 14:31:13;;;;;;;2.57;1.60;;;10.40;99.90;;;;;;4987653;28;20452;-72
2024/02/04 14:33:59;;;;;;;4.07;1.40;;;10.40;99.90;;;;;;4992906;28;20452;-72
2024/02/04 14:36:45;;;;;;;3.13;2.50;;;10.50;99.90;;;;;;4992713;28;20481;-72